Time;durP1;ratioP1;P1;durP2;ratioP2;P2;SDS_P1;SDS_P2;PMS_P1;PMS_P2;Temp;Humidity;BMP_temperature;BMP_pressure;BME280_temperature;BME280_humidity;BME280_pressure;Samples;Min_cycle;Max_cycle;Signal;HPM_P1;HPM_P2
2022/05/13 00:01:05;;;;;;;6.60;4.53;;;;;;;;;;5052258;28;20426;-58
2022/05/13 00:03:31;;;;;;;9.10;4.33;;;;;;;;;;5052728;28;20429;-58
2022/05/13 00:05:57;;;;;;;5.23;3.90;;;;;;;;;;5052809;28;20426;-58
2022/05/13 00:08:23;;;;;;;7.77;4.30;;;;;;;;;;5052571;28;20445;-58
2022/05/13 00:10:49;;;;;;;6.43;5.10;;;;;;;;;;5052108;28;20445;-58
2022/05/13 00:13:15;;;;;;;4.60;4.20;;;;;;;;;;5052483;28;20500;-58
2022/05/13 00:15:44;;;;;;;6.03;4.70;;;;;;;;;;5052675;28;20414;-58
2022/05/13 00:18:11;;;;;;;9.17;4.93;;;;;;;;;;5052593;28;21036;-58
2022/05/13 00:20:37;;;;;;;10.70;4.83;;;;;;;;;;5052377;28;20493;-58
2022/05/13 00:23:04;;;;;;;12.87;4.30;;;;;;;;;;5051791;28;20472;-58
2022/05/13 00:25:31;;;;;;;5.73;4.40;;;;;;;;;;5052258;28;20405;-58
2022/05/13 00:27:58;;;;;;;4.50;3.97;;;;;;;;;;5052599;28;20445;-58
2022/05/13 00:30:25;;;;;;;10.90;4.70;;;;;;;;;;5052256;28;20406;-58
2022/05/13 00:32:51;;;;;;;7.27;4.93;;;;;;;;;;5051618;28;20803;-58
2022/05/13 00:35:17;;;;;;;5.80;4.70;;;;;;;;;;5052310;28;20479;-58
2022/05/13 00:37:43;;;;;;;13.30;4.10;;;;;;;;;;5052266;28;20413;-58
2022/05/13 00:40:10;;;;;;;4.30;3.90;;;;;;;;;;5051974;28;20810;-58
2022/05/13 00:42:36;;;;;;;8.20;4.20;;;;;;;;;;5051423;28;20411;-58
2022/05/13 00:45:02;;;;;;;4.30;3.90;;;;;;;;;;5052081;28;20428;-57
2022/05/13 00:47:28;;;;;;;4.67;3.50;;;;;;;;;;5052120;28;20411;-57
2022/05/13 00:49:56;;;;;;;5.13;4.10;;;;;;;;;;5051980;28;20410;-58
2022/05/13 00:52:22;;;;;;;9.10;3.80;;;;;;;;;;5051201;28;20431;-58
2022/05/13 00:54:49;;;;;;;5.20;3.20;;;;;;;;;;5051810;28;20433;-58
2022/05/13 00:57:15;;;;;;;6.20;4.00;;;;;;;;;;5051859;28;20399;-58
2022/05/13 00:59:43;;;;;;;8.80;3.57;;;;;;;;;;5051812;28;21004;-58
2022/05/13 01:02:09;;;;;;;6.33;4.37;;;;;;;;;;5050396;28;20490;-58
2022/05/13 01:04:37;;;;;;;3.40;3.10;;;;;;;;;;5051223;28;20441;-58
2022/05/13 01:07:05;;;;;;;5.07;3.40;;;;;;;;;;5051535;28;20479;-58
2022/05/13 01:09:34;;;;;;;5.20;2.73;;;;;;;;;;5051240;28;20406;-58
2022/05/13 01:12:03;;;;;;;3.77;3.23;;;;;;;;;;5051281;28;20411;-58
2022/05/13 01:14:32;;;;;;;4.13;2.90;;;;;;;;;;5051681;28;20426;-58
2022/05/13 01:20:01;;;;;;;4.33;3.50;;;;;;;;;;5058190;28;20822;-58
2022/05/13 01:22:27;;;;;;;4.20;3.80;;;;;;;;;;5057672;28;20397;-58
2022/05/13 01:24:54;;;;;;;7.87;3.30;;;;;;;;;;5058288;28;20799;-58
2022/05/13 01:27:20;;;;;;;4.30;3.90;;;;;;;;;;5058309;28;20410;-58
2022/05/13 01:29:47;;;;;;;4.03;3.10;;;;;;;;;;5058245;28;20436;-58
2022/05/13 01:32:13;;;;;;;6.77;4.20;;;;;;;;;;5057468;28;20434;-58
2022/05/13 01:34:38;;;;;;;4.00;3.67;;;;;;;;;;5058238;28;20472;-58
2022/05/13 01:37:04;;;;;;;4.90;3.40;;;;;;;;;;5057899;28;20420;-58
2022/05/13 01:39:30;;;;;;;3.60;3.30;;;;;;;;;;5058066;28;20511;-58
2022/05/13 01:41:56;;;;;;;4.27;3.60;;;;;;;;;;5057523;28;20393;-58
2022/05/13 01:44:22;;;;;;;5.83;3.03;;;;;;;;;;5058064;28;20440;-58
2022/05/13 01:46:48;;;;;;;7.97;3.70;;;;;;;;;;5058079;28;20372;-58
2022/05/13 01:49:15;;;;;;;8.87;3.57;;;;;;;;;;5058104;28;20409;-58
2022/05/13 01:51:40;;;;;;;4.10;3.13;;;;;;;;;;5057376;28;20414;-58
2022/05/13 01:54:06;;;;;;;4.97;3.27;;;;;;;;;;5058128;28;20436;-58
2022/05/13 01:56:32;;;;;;;3.67;3.30;;;;;;;;;;5058056;28;20450;-58
2022/05/13 01:58:58;;;;;;;3.30;3.10;;;;;;;;;;5057867;28;20453;-58
2022/05/13 02:01:25;;;;;;;4.90;3.23;;;;;;;;;;5057162;28;21017;-58
2022/05/13 02:03:51;;;;;;;3.43;3.13;;;;;;;;;;5057972;28;20508;-58
2022/05/13 02:06:19;;;;;;;7.13;3.77;;;;;;;;;;5057904;28;20399;-58
2022/05/13 02:08:46;;;;;;;5.43;3.37;;;;;;;;;;5057847;28;20408;-58
2022/05/13 02:11:12;;;;;;;3.67;2.43;;;;;;;;;;5057291;28;20455;-58
2022/05/13 02:13:39;;;;;;;6.97;3.20;;;;;;;;;;5057928;28;20416;-58
2022/05/13 02:16:05;;;;;;;3.73;3.37;;;;;;;;;;5057822;28;20402;-58
2022/05/13 02:18:31;;;;;;;5.97;3.73;;;;;;;;;;5057815;28;20951;-58
2022/05/13 02:20:57;;;;;;;3.90;3.60;;;;;;;;;;5057187;28;20480;-58
2022/05/13 02:23:23;;;;;;;7.03;3.10;;;;;;;;;;5057732;28;21099;-58
2022/05/13 02:25:50;;;;;;;6.60;3.83;;;;;;;;;;5057808;28;20443;-58
2022/05/13 02:28:16;;;;;;;4.00;3.70;;;;;;;;;;5053679;28;20402;-58
2022/05/13 02:30:42;;;;;;;7.50;3.23;;;;;;;;;;5054356;28;20409;-58
2022/05/13 02:33:08;;;;;;;3.50;3.20;;;;;;;;;;5054181;28;20972;-58
2022/05/13 02:35:35;;;;;;;4.67;3.10;;;;;;;;;;5054551;28;20408;-58
2022/05/13 02:38:00;;;;;;;6.13;3.37;;;;;;;;;;5054566;28;21148;-58
2022/05/13 02:43:12;;;;;;;3.73;3.43;;;;;;;;;;5054282;28;20408;-58
2022/05/13 02:45:38;;;;;;;6.27;4.00;;;;;;;;;;5054372;28;20396;-58
2022/05/13 02:48:04;;;;;;;5.90;3.53;;;;;;;;;;5054302;28;20402;-58
2022/05/13 02:50:30;;;;;;;3.87;3.30;;;;;;;;;;5054155;28;20412;-58
2022/05/13 02:52:57;;;;;;;8.20;3.53;;;;;;;;;;5053381;28;20425;-58
2022/05/13 02:55:23;;;;;;;4.57;3.17;;;;;;;;;;5054142;28;20397;-58
2022/05/13 02:57:49;;;;;;;4.87;3.37;;;;;;;;;;5054061;28;20447;-58
2022/05/13 03:00:15;;;;;;;6.10;3.50;;;;;;;;;;5053965;28;20953;-58
2022/05/13 03:02:43;;;;;;;4.43;3.37;;;;;;;;;;5053314;28;20401;-58
2022/05/13 03:05:09;;;;;;;5.90;3.80;;;;;;;;;;5053986;28;20401;-58
2022/05/13 03:07:35;;;;;;;9.13;3.80;;;;;;;;;;5053877;28;20897;-58
2022/05/13 03:10:01;;;;;;;3.93;2.90;;;;;;;;;;5053771;28;20401;-58
2022/05/13 03:12:27;;;;;;;5.13;4.03;;;;;;;;;;5053127;28;20819;-58
2022/05/13 03:14:53;;;;;;;3.70;3.37;;;;;;;;;;5053713;28;20890;-58
2022/05/13 03:17:19;;;;;;;4.30;2.70;;;;;;;;;;5053725;28;20558;-58
2022/05/13 03:19:45;;;;;;;9.80;3.80;;;;;;;;;;5053584;28;20456;-58
2022/05/13 03:22:11;;;;;;;3.40;3.10;;;;;;;;;;5053017;28;20394;-58
2022/05/13 03:24:37;;;;;;;4.00;3.20;;;;;;;;;;5053532;28;20419;-58
2022/05/13 03:27:04;;;;;;;4.90;3.27;;;;;;;;;;5053560;28;20401;-58
2022/05/13 03:29:30;;;;;;;3.93;2.87;;;;;;;;;;5053434;28;20397;-58
2022/05/13 03:31:56;;;;;;;6.40;3.13;;;;;;;;;;5052831;28;20410;-58
2022/05/13 03:34:22;;;;;;;4.77;3.80;;;;;;;;;;5053360;28;20475;-58
2022/05/13 03:36:51;;;;;;;6.60;3.60;;;;;;;;;;5053371;28;20405;-58
2022/05/13 03:39:18;;;;;;;9.43;3.50;;;;;;;;;;5052757;28;20460;-58
2022/05/13 03:41:44;;;;;;;5.03;3.67;;;;;;;;;;5052833;28;20825;-58
2022/05/13 03:44:10;;;;;;;4.77;3.43;;;;;;;;;;5053168;28;20417;-58
2022/05/13 03:46:36;;;;;;;11.33;3.93;;;;;;;;;;5053146;28;20428;-57
2022/05/13 03:49:02;;;;;;;4.17;3.77;;;;;;;;;;5053047;28;20470;-58
2022/05/13 03:51:28;;;;;;;5.30;3.80;;;;;;;;;;5052205;28;20441;-57
2022/05/13 03:53:55;;;;;;;4.00;3.60;;;;;;;;;;5052851;28;20828;-58
2022/05/13 03:56:20;;;;;;;4.20;3.80;;;;;;;;;;5053008;28;20774;-58
2022/05/13 03:58:46;;;;;;;10.03;4.70;;;;;;;;;;5052738;28;20402;-58
2022/05/13 04:01:12;;;;;;;5.07;3.60;;;;;;;;;;5052220;28;20484;-58
2022/05/13 04:03:38;;;;;;;7.37;3.87;;;;;;;;;;5052841;28;20427;-58
2022/05/13 04:08:58;;;;;;;4.00;3.70;;;;;;;;;;5052729;28;20527;-58
2022/05/13 04:11:29;;;;;;;11.13;5.23;;;;;;;;;;5052151;28;20385;-58
2022/05/13 04:16:42;;;;;;;4.87;3.37;;;;;;;;;;5052798;28;20396;-58
2022/05/13 04:19:08;;;;;;;3.93;3.10;;;;;;;;;;5052340;28;20611;-58
2022/05/13 04:21:36;;;;;;;9.33;3.80;;;;;;;;;;5051815;28;20398;-58
2022/05/13 04:24:04;;;;;;;4.00;3.60;;;;;;;;;;5052492;28;20425;-58
2022/05/13 04:26:30;;;;;;;5.20;3.53;;;;;;;;;;5052444;28;20901;-58
2022/05/13 04:28:56;;;;;;;17.43;4.27;;;;;;;;;;5052304;28;20424;-58
2022/05/13 04:31:27;;;;;;;4.30;3.50;;;;;;;;;;5051757;28;20408;-58
2022/05/13 04:33:53;;;;;;;4.23;3.37;;;;;;;;;;5067360;28;20441;-58
2022/05/13 04:36:19;;;;;;;2.93;2.43;;;;;;;;;;5052232;28;20406;-58
2022/05/13 04:38:46;;;;;;;3.90;2.93;;;;;;;;;;5052103;28;20513;-58
2022/05/13 04:43:58;;;;;;;10.27;3.07;;;;;;;;;;5051942;28;20417;-58
2022/05/13 04:46:24;;;;;;;5.03;2.77;;;;;;;;;;5052171;28;20402;-58
2022/05/13 04:48:51;;;;;;;7.63;2.97;;;;;;;;;;5051979;28;20408;-58
2022/05/13 04:51:17;;;;;;;3.70;2.50;;;;;;;;;;5050678;28;20394;-58
2022/05/13 04:53:44;;;;;;;6.83;2.67;;;;;;;;;;5051927;28;20455;-58
2022/05/13 04:56:10;;;;;;;5.40;2.60;;;;;;;;;;5051962;28;20436;-58
2022/05/13 04:58:36;;;;;;;5.53;2.90;;;;;;;;;;5051819;28;20398;-58
2022/05/13 05:01:05;;;;;;;5.37;3.33;;;;;;;;;;5051140;28;20474;-58
2022/05/13 05:03:32;;;;;;;7.00;2.97;;;;;;;;;;5051933;28;20426;-58
2022/05/13 05:05:58;;;;;;;16.03;3.40;;;;;;;;;;5052067;28;20805;-58
2022/05/13 05:08:24;;;;;;;9.70;2.70;;;;;;;;;;5051709;28;20546;-58
2022/05/13 05:10:50;;;;;;;6.20;2.50;;;;;;;;;;5051116;28;20433;-58
2022/05/13 05:13:17;;;;;;;4.70;2.50;;;;;;;;;;5051903;28;20463;-58
2022/05/13 05:15:45;;;;;;;4.83;2.23;;;;;;;;;;5051782;28;20419;-58
2022/05/13 05:18:11;;;;;;;8.97;3.07;;;;;;;;;;5051764;28;20408;-58
2022/05/13 05:20:37;;;;;;;5.13;2.87;;;;;;;;;;5051435;28;20448;-58
2022/05/13 05:23:05;;;;;;;5.40;2.57;;;;;;;;;;5050940;28;20430;-58
2022/05/13 05:25:31;;;;;;;5.00;2.20;;;;;;;;;;5052320;28;20397;-58
2022/05/13 05:27:57;;;;;;;6.00;2.43;;;;;;;;;;5051686;28;20826;-58
2022/05/13 05:30:23;;;;;;;4.33;2.43;;;;;;;;;;5051603;28;20420;-58
2022/05/13 05:32:49;;;;;;;10.23;2.80;;;;;;;;;;5050997;28;20409;-58
2022/05/13 05:35:17;;;;;;;5.93;3.90;;;;;;;;;;5051605;28;20409;-58
2022/05/13 05:37:43;;;;;;;3.50;2.43;;;;;;;;;;5051581;28;20406;-58
2022/05/13 05:40:10;;;;;;;5.77;3.40;;;;;;;;;;5051278;28;20465;-58
2022/05/13 05:42:39;;;;;;;2.97;2.67;;;;;;;;;;5050870;28;20406;-58
2022/05/13 05:45:06;;;;;;;13.33;3.17;;;;;;;;;;5051402;28;20421;-58
2022/05/13 05:47:32;;;;;;;7.43;3.40;;;;;;;;;;5051482;28;20409;-58
2022/05/13 05:49:59;;;;;;;4.23;2.83;;;;;;;;;;5051383;28;20444;-58
2022/05/13 05:52:25;;;;;;;4.70;2.90;;;;;;;;;;5050679;28;20425;-58
2022/05/13 05:57:36;;;;;;;8.73;3.20;;;;;;;;;;5050274;28;20436;-58
2022/05/13 06:00:06;;;;;;;10.43;4.47;;;;;;;;;;5050641;28;20459;-58
2022/05/13 06:02:32;;;;;;;18.20;3.57;;;;;;;;;;5052492;28;20402;-58
2022/05/13 06:04:58;;;;;;;8.40;3.10;;;;;;;;;;5054582;28;20899;-58
2022/05/13 06:07:26;;;;;;;12.80;3.57;;;;;;;;;;5054640;28;20407;-58
2022/05/13 06:09:52;;;;;;;7.10;3.17;;;;;;;;;;5054792;28;20881;-58
2022/05/13 06:12:18;;;;;;;4.13;3.13;;;;;;;;;;5054296;28;20496;-58
2022/05/13 06:14:44;;;;;;;10.70;3.20;;;;;;;;;;5054782;28;20496;-58
2022/05/13 06:17:11;;;;;;;4.40;2.93;;;;;;;;;;5054941;28;20402;-58
2022/05/13 06:19:37;;;;;;;7.27;3.53;;;;;;;;;;5054711;28;20538;-58
2022/05/13 06:22:03;;;;;;;5.10;3.10;;;;;;;;;;5054114;28;20402;-58
2022/05/13 06:24:29;;;;;;;7.67;3.10;;;;;;;;;;5054651;28;20462;-58
2022/05/13 06:26:55;;;;;;;8.93;3.70;;;;;;;;;;5054728;28;20980;-58
2022/05/13 06:29:23;;;;;;;8.93;3.50;;;;;;;;;;5054773;28;20399;-58
2022/05/13 06:31:49;;;;;;;9.27;3.80;;;;;;;;;;5054406;28;20490;-58
2022/05/13 06:34:15;;;;;;;9.30;3.70;;;;;;;;;;5052978;28;20448;-58
2022/05/13 06:36:42;;;;;;;6.07;3.37;;;;;;;;;;5052603;28;20449;-58
2022/05/13 06:39:08;;;;;;;4.47;3.67;;;;;;;;;;5052716;28;20837;-58
2022/05/13 06:41:38;;;;;;;7.63;3.73;;;;;;;;;;5053789;28;20952;-57
2022/05/13 06:44:06;;;;;;;6.20;3.20;;;;;;;;;;5054428;28;20388;-58
2022/05/13 06:46:33;;;;;;;11.27;3.67;;;;;;;;;;5054203;28;20406;-58
2022/05/13 06:49:00;;;;;;;4.70;3.27;;;;;;;;;;5054137;28;20406;-58
2022/05/13 06:51:26;;;;;;;10.70;3.80;;;;;;;;;;5053487;28;20401;-58
2022/05/13 06:53:52;;;;;;;5.60;3.07;;;;;;;;;;5054163;28;20429;-58
2022/05/13 06:56:18;;;;;;;12.07;3.47;;;;;;;;;;5054237;28;20378;-58
2022/05/13 06:58:44;;;;;;;5.60;3.00;;;;;;;;;;5054040;28;20464;-58
2022/05/13 07:01:10;;;;;;;6.53;3.13;;;;;;;;;;5053430;28;20468;-58
2022/05/13 07:03:36;;;;;;;6.43;4.07;;;;;;;;;;5054153;28;20413;-59
2022/05/13 07:06:02;;;;;;;4.53;3.10;;;;;;;;;;5054072;28;20482;-59
2022/05/13 07:08:28;;;;;;;4.17;2.80;;;;;;;;;;5053904;28;20456;-59
2022/05/13 07:10:54;;;;;;;5.53;2.80;;;;;;;;;;5053302;28;20439;-58
2022/05/13 07:13:20;;;;;;;6.80;3.00;;;;;;;;;;5053113;28;20436;-58
2022/05/13 07:15:46;;;;;;;7.10;4.07;;;;;;;;;;5053792;28;20406;-58
2022/05/13 07:18:13;;;;;;;6.73;2.87;;;;;;;;;;5053689;28;20485;-58
2022/05/13 07:20:39;;;;;;;4.13;2.40;;;;;;;;;;5053561;28;20797;-59
2022/05/13 07:23:05;;;;;;;10.17;3.10;;;;;;;;;;5053142;28;21325;-58
2022/05/13 07:25:34;;;;;;;8.80;3.10;;;;;;;;;;5053675;28;20390;-59
2022/05/13 07:28:00;;;;;;;9.83;3.63;;;;;;;;;;5053619;28;20879;-59
2022/05/13 07:30:26;;;;;;;4.10;2.60;;;;;;;;;;5053575;28;20755;-59
2022/05/13 07:32:52;;;;;;;5.30;3.07;;;;;;;;;;5052965;28;20425;-59
2022/05/13 07:35:19;;;;;;;13.60;2.83;;;;;;;;;;5053506;28;20403;-59
2022/05/13 07:37:45;;;;;;;4.27;2.33;;;;;;;;;;5053383;28;20459;-59
2022/05/13 07:42:55;;;;;;;12.03;3.00;;;;;;;;;;5052662;28;20411;-59
2022/05/13 07:45:21;;;;;;;5.90;2.60;;;;;;;;;;5053238;28;20372;-58
2022/05/13 07:47:47;;;;;;;6.03;2.43;;;;;;;;;;5053339;28;20459;-59
2022/05/13 07:50:14;;;;;;;9.97;2.90;;;;;;;;;;5053123;28;21057;-59
2022/05/13 07:52:40;;;;;;;4.50;2.43;;;;;;;;;;5052357;28;20392;-59
2022/05/13 07:55:10;;;;;;;2.97;2.43;;;;;;;;;;5053023;28;20421;-59
2022/05/13 07:57:38;;;;;;;5.67;3.13;;;;;;;;;;5053055;28;20406;-58
2022/05/13 08:02:48;;;;;;;4.70;2.70;;;;;;;;;;5052593;28;21248;-59
2022/05/13 08:05:14;;;;;;;6.43;2.50;;;;;;;;;;5057389;28;20412;-59
2022/05/13 08:07:40;;;;;;;5.33;2.80;;;;;;;;;;5060134;28;20490;-59
2022/05/13 08:10:06;;;;;;;4.67;2.30;;;;;;;;;;5052642;28;20787;-59
2022/05/13 08:12:32;;;;;;;2.90;2.70;;;;;;;;;;5052349;28;20405;-59
2022/05/13 08:14:58;;;;;;;5.67;2.50;;;;;;;;;;5052679;28;20423;-59
2022/05/13 08:17:24;;;;;;;10.87;2.53;;;;;;;;;;5052685;28;20429;-59
2022/05/13 08:19:50;;;;;;;6.17;1.87;;;;;;;;;;5053539;28;20540;-59
2022/05/13 08:22:16;;;;;;;3.17;2.07;;;;;;;;;;5052375;28;20469;-59
2022/05/13 08:24:42;;;;;;;3.50;2.23;;;;;;;;;;5052309;28;20817;-60
2022/05/13 08:27:08;;;;;;;4.70;1.83;;;;;;;;;;5052508;28;20435;-59
2022/05/13 08:29:34;;;;;;;4.23;2.17;;;;;;;;;;5052491;28;20405;-59
2022/05/13 08:32:01;;;;;;;8.83;2.23;;;;;;;;;;5051680;28;20773;-57
2022/05/13 08:34:27;;;;;;;7.43;1.77;;;;;;;;;;5052233;28;20419;-58
2022/05/13 08:36:53;;;;;;;4.30;1.87;;;;;;;;;;5052430;28;21133;-59
2022/05/13 08:39:19;;;;;;;4.30;2.23;;;;;;;;;;5052254;28;20853;-61
2022/05/13 08:41:57;;;;;;;7.83;2.33;;;;;;;;;;5051695;28;21066;-59
2022/05/13 08:44:25;;;;;;;2.57;1.80;;;;;;;;;;5052053;28;20420;-60
2022/05/13 08:46:56;;;;;;;5.53;2.43;;;;;;;;;;5052092;28;20401;-59
2022/05/13 08:49:22;;;;;;;2.27;1.53;;;;;;;;;;5065026;28;20418;-60
2022/05/13 08:51:51;;;;;;;5.37;2.30;;;;;;;;;;5071406;28;20510;-59
2022/05/13 08:54:18;;;;;;;6.37;2.50;;;;;;;;;;5072316;28;20522;-59
2022/05/13 08:56:46;;;;;;;2.87;2.00;;;;;;;;;;5072274;28;20404;-60
2022/05/13 08:59:16;;;;;;;4.70;2.10;;;;;;;;;;5071822;28;20404;-60
2022/05/13 09:01:45;;;;;;;4.70;2.27;;;;;;;;;;5072039;28;20824;-61
2022/05/13 09:04:14;;;;;;;4.17;2.00;;;;;;;;;;5072317;28;20428;-61
2022/05/13 09:06:46;;;;;;;3.10;1.90;;;;;;;;;;5072045;28;20407;-61
2022/05/13 09:09:12;;;;;;;7.07;2.67;;;;;;;;;;5072346;28;20416;-61
2022/05/13 09:11:51;;;;;;;5.57;2.70;;;;;;;;;;5071486;28;20404;-61
2022/05/13 09:14:22;;;;;;;9.07;2.50;;;;;;;;;;5071953;28;20481;-60
2022/05/13 09:17:03;;;;;;;9.80;2.57;;;;;;;;;;5072036;28;20412;-60
2022/05/13 09:19:42;;;;;;;7.83;2.33;;;;;;;;;;5072578;28;20466;-60
2022/05/13 09:22:11;;;;;;;3.63;2.20;;;;;;;;;;5071579;28;20876;-60
2022/05/13 09:24:37;;;;;;;10.47;2.77;;;;;;;;;;5071875;28;20506;-60
2022/05/13 09:27:04;;;;;;;6.50;2.50;;;;;;;;;;5071740;28;20414;-60
2022/05/13 09:29:40;;;;;;;4.73;2.50;;;;;;;;;;5071404;28;20758;-60
2022/05/13 09:32:07;;;;;;;5.90;2.43;;;;;;;;;;5071037;28;20400;-60
2022/05/13 09:34:39;;;;;;;5.90;2.30;;;;;;;;;;5071292;28;20462;-60
2022/05/13 09:37:31;;;;;;;5.10;2.50;;;;;;;;;;5073493;28;20424;-58
2022/05/13 09:40:10;;;;;;;6.80;2.00;;;;;;;;;;5074315;28;20998;-60
2022/05/13 09:42:37;;;;;;;3.00;1.70;;;;;;;;;;5075043;28;20503;-60
2022/05/13 09:45:22;;;;;;;5.50;1.90;;;;;;;;;;5075609;28;20423;-61
2022/05/13 09:48:02;;;;;;;4.70;2.10;;;;;;;;;;5075593;28;20758;-60
2022/05/13 09:50:31;;;;;;;3.90;2.10;;;;;;;;;;5075469;28;20409;-60
2022/05/13 09:53:16;;;;;;;3.00;1.40;;;;;;;;;;5074961;28;20420;-59
2022/05/13 09:55:43;;;;;;;2.47;1.63;;;;;;;;;;5075651;28;20780;-61
2022/05/13 09:58:15;;;;;;;6.23;1.50;;;;;;;;;;5075535;28;20504;-59
2022/05/13 10:00:43;;;;;;;3.43;2.17;;;;;;;;;;5075041;28;20452;-60
2022/05/13 10:03:22;;;;;;;3.60;2.40;;;;;;;;;;5074519;28;20434;-60
2022/05/13 10:05:53;;;;;;;7.50;2.40;;;;;;;;;;5075114;28;20431;-60
2022/05/13 10:08:22;;;;;;;5.80;2.33;;;;;;;;;;5074994;28;20400;-61
2022/05/13 10:13:59;;;;;;;2.67;2.10;;;;;;;;;;5075020;28;20804;-57
2022/05/13 10:16:34;;;;;;;7.07;2.40;;;;;;;;;;5075035;28;21072;-58
2022/05/13 10:19:21;;;;;;;5.13;2.33;;;;;;;;;;5074843;28;20396;-58
2022/05/13 10:21:49;;;;;;;2.87;2.57;;;;;;;;;;5074211;28;20729;-59
2022/05/13 10:24:18;;;;;;;4.63;2.00;;;;;;;;;;5074956;28;20422;-58
2022/05/13 10:26:46;;;;;;;2.23;2.00;;;;;;;;;;5074888;28;20410;-58
2022/05/13 10:29:14;;;;;;;4.27;2.27;;;;;;;;;;5074530;28;20906;-58
2022/05/13 10:31:42;;;;;;;6.10;2.30;;;;;;;;;;5072717;28;20496;-58
2022/05/13 10:34:23;;;;;;;3.50;2.30;;;;;;;;;;5073517;28;20499;-58
2022/05/13 10:36:58;;;;;;;5.37;2.27;;;;;;;;;;5074527;28;20393;-58
2022/05/13 10:39:36;;;;;;;9.90;3.00;;;;;;;;;;5074518;28;20469;-59
2022/05/13 10:42:05;;;;;;;3.27;2.43;;;;;;;;;;5073886;28;20401;-58
2022/05/13 10:44:42;;;;;;;5.43;2.47;;;;;;;;;;5073512;28;20428;-58
2022/05/13 10:47:15;;;;;;;4.53;2.30;;;;;;;;;;5072999;28;20919;-59
2022/05/13 10:49:43;;;;;;;4.57;2.70;;;;;;;;;;5073217;28;20530;-58
2022/05/13 10:52:11;;;;;;;3.43;2.57;;;;;;;;;;5071668;28;20417;-57
2022/05/13 10:54:49;;;;;;;3.13;2.43;;;;;;;;;;5072586;28;20423;-58
2022/05/13 10:57:35;;;;;;;3.27;2.33;;;;;;;;;;5072372;28;20491;-58
2022/05/13 11:00:05;;;;;;;5.30;1.80;;;;;;;;;;5073821;28;20455;-58
2022/05/13 11:02:38;;;;;;;3.67;2.60;;;;;;;;;;5073588;28;20428;-57
2022/05/13 11:05:26;;;;;;;20.07;5.37;;;;;;;;;;5074014;28;20416;-57
2022/05/13 11:08:01;;;;;;;5.00;2.13;;;;;;;;;;5074010;28;20752;-58
2022/05/13 11:10:36;;;;;;;4.87;2.47;;;;;;;;;;5070315;28;20425;-59
2022/05/13 11:13:14;;;;;;;3.97;2.30;;;;;;;;;;5072455;28;20762;-58
2022/05/13 11:15:49;;;;;;;4.03;2.63;;;;;;;;;;5073625;28;20418;-57
2022/05/13 11:18:29;;;;;;;6.37;2.40;;;;;;;;;;5073364;28;20430;-58
2022/05/13 11:21:08;;;;;;;8.83;3.83;;;;;;;;;;5061733;28;20460;-58
2022/05/13 11:23:37;;;;;;;12.03;2.23;;;;;;;;;;5064385;28;20431;-58
2022/05/13 11:26:19;;;;;;;5.97;2.70;;;;;;;;;;5062597;28;20431;-57
2022/05/13 11:29:07;;;;;;;5.47;2.60;;;;;;;;;;5068138;28;20880;-58
2022/05/13 11:31:51;;;;;;;4.20;2.50;;;;;;;;;;5072112;28;20894;-58
2022/05/13 11:34:36;;;;;;;5.80;2.40;;;;;;;;;;5071350;28;20416;-58
2022/05/13 11:37:06;;;;;;;5.90;2.83;;;;;;;;;;5072748;28;20437;-58
2022/05/13 11:39:32;;;;;;;8.07;2.60;;;;;;;;;;5072627;28;20453;-59
2022/05/13 11:42:06;;;;;;;4.37;2.63;;;;;;;;;;5072036;28;20397;-59
2022/05/13 11:44:38;;;;;;;5.73;3.83;;;;;;;;;;5072732;28;20459;-59
2022/05/13 11:47:15;;;;;;;5.17;2.90;;;;;;;;;;5073144;28;20435;-58
2022/05/13 11:49:44;;;;;;;8.93;2.93;;;;;;;;;;5073135;28;20410;-59
2022/05/13 11:52:12;;;;;;;6.57;3.60;;;;;;;;;;5069745;28;20432;-59
2022/05/13 11:54:40;;;;;;;5.43;2.60;;;;;;;;;;5073175;28;20467;-59
2022/05/13 11:57:24;;;;;;;3.50;2.20;;;;;;;;;;5071580;28;20411;-59
2022/05/13 11:59:50;;;;;;;9.27;3.10;;;;;;;;;;5064472;28;20455;-59
2022/05/13 12:02:16;;;;;;;5.70;2.97;;;;;;;;;;5072071;28;20400;-58
2022/05/13 12:05:01;;;;;;;7.27;2.73;;;;;;;;;;5072794;28;20489;-59
2022/05/13 12:07:32;;;;;;;6.40;3.50;;;;;;;;;;5072713;28;20455;-59
2022/05/13 12:09:59;;;;;;;2.97;2.67;;;;;;;;;;5072540;28;20431;-58
2022/05/13 12:12:25;;;;;;;4.40;2.80;;;;;;;;;;5064916;28;20786;-58
2022/05/13 12:14:51;;;;;;;4.57;2.80;;;;;;;;;;5056348;28;20429;-58
2022/05/13 12:17:27;;;;;;;9.53;3.23;;;;;;;;;;5071122;28;20756;-58
2022/05/13 12:19:57;;;;;;;3.97;2.50;;;;;;;;;;5052318;28;20518;-58
2022/05/13 12:22:34;;;;;;;5.27;3.00;;;;;;;;;;5051925;28;20412;-58
2022/05/13 12:25:36;;;;;;;4.50;3.23;;;;;;;;;;5052490;28;20420;-59
2022/05/13 12:28:04;;;;;;;3.10;2.80;;;;;;;;;;5052410;28;20400;-59
2022/05/13 12:30:30;;;;;;;4.47;2.83;;;;;;;;;;5052293;28;20412;-58
2022/05/13 12:32:57;;;;;;;4.33;3.93;;;;;;;;;;5051763;28;20397;-58
2022/05/13 12:38:24;;;;;;;7.17;2.87;;;;;;;;;;5052563;28;20911;-58
2022/05/13 12:40:59;;;;;;;6.73;2.73;;;;;;;;;;5051526;28;20449;-59
2022/05/13 12:43:44;;;;;;;4.93;2.90;;;;;;;;;;5052141;28;20435;-59
2022/05/13 12:46:16;;;;;;;5.77;3.10;;;;;;;;;;5052203;28;20416;-58
2022/05/13 12:49:02;;;;;;;3.60;2.80;;;;;;;;;;5051985;28;20401;-59
2022/05/13 12:51:43;;;;;;;3.77;3.07;;;;;;;;;;5051123;28;20458;-58
2022/05/13 12:54:10;;;;;;;9.00;3.53;;;;;;;;;;5052022;28;20471;-58
2022/05/13 12:56:43;;;;;;;5.03;3.17;;;;;;;;;;5051977;28;20458;-58
2022/05/13 12:59:27;;;;;;;3.50;3.03;;;;;;;;;;5051965;28;20409;-59
2022/05/13 13:01:54;;;;;;;6.00;3.40;;;;;;;;;;5051153;28;20467;-59
2022/05/13 13:04:22;;;;;;;5.43;2.70;;;;;;;;;;5051886;28;20428;-59
2022/05/13 13:06:48;;;;;;;3.83;3.40;;;;;;;;;;5051934;28;20397;-59
2022/05/13 13:09:20;;;;;;;4.07;3.63;;;;;;;;;;5051787;28;20400;-59
2022/05/13 13:12:13;;;;;;;6.93;3.40;;;;;;;;;;5050567;28;20401;-59
2022/05/13 13:14:45;;;;;;;9.23;3.77;;;;;;;;;;5043128;28;20441;-59
2022/05/13 13:17:19;;;;;;;6.40;4.00;;;;;;;;;;5051808;28;20389;-58
2022/05/13 13:19:46;;;;;;;6.70;3.73;;;;;;;;;;5051681;28;20453;-58
2022/05/13 13:22:12;;;;;;;4.03;3.40;;;;;;;;;;5051193;28;20405;-58
2022/05/13 13:24:39;;;;;;;9.37;3.10;;;;;;;;;;5051599;28;20417;-59
2022/05/13 13:27:07;;;;;;;5.80;3.50;;;;;;;;;;5051679;28;20904;-59
2022/05/13 13:29:34;;;;;;;5.67;4.40;;;;;;;;;;5051666;28;20909;-59
2022/05/13 13:32:02;;;;;;;3.77;3.50;;;;;;;;;;5050970;28;20413;-59
2022/05/13 13:34:31;;;;;;;4.23;3.83;;;;;;;;;;5051501;28;20425;-58
2022/05/13 13:36:57;;;;;;;9.60;4.67;;;;;;;;;;5051660;28;20412;-59
2022/05/13 13:39:26;;;;;;;3.97;3.20;;;;;;;;;;5051333;28;20402;-59
2022/05/13 13:42:18;;;;;;;4.73;3.40;;;;;;;;;;5050936;28;20462;-59
2022/05/13 13:44:46;;;;;;;7.93;3.93;;;;;;;;;;5050447;28;20951;-59
2022/05/13 13:47:32;;;;;;;4.10;3.70;;;;;;;;;;5051022;28;20494;-59
2022/05/13 13:49:58;;;;;;;4.93;3.53;;;;;;;;;;5051666;28;20415;-58
2022/05/13 13:52:35;;;;;;;6.27;3.23;;;;;;;;;;5051397;28;20424;-59
2022/05/13 13:55:21;;;;;;;3.67;2.87;;;;;;;;;;5050286;28;20644;-59
2022/05/13 13:57:53;;;;;;;3.83;2.53;;;;;;;;;;5051272;28;20906;-59
2022/05/13 14:00:33;;;;;;;5.40;3.33;;;;;;;;;;5051342;28;20477;-58
2022/05/13 14:03:11;;;;;;;2.77;2.40;;;;;;;;;;5050573;28;20408;-58
2022/05/13 14:05:39;;;;;;;5.00;2.50;;;;;;;;;;5051354;28;20489;-58
2022/05/13 14:08:06;;;;;;;7.33;2.33;;;;;;;;;;5051237;28;20461;-59
2022/05/13 14:10:35;;;;;;;2.60;2.40;;;;;;;;;;5051096;28;20497;-58
2022/05/13 14:13:04;;;;;;;2.40;2.20;;;;;;;;;;5050573;28;20414;-58
2022/05/13 14:15:32;;;;;;;5.33;2.40;;;;;;;;;;5051286;28;20435;-58
2022/05/13 14:17:58;;;;;;;6.53;2.30;;;;;;;;;;5051244;28;20993;-58
2022/05/13 14:20:34;;;;;;;6.87;2.97;;;;;;;;;;5061578;28;20460;-58
2022/05/13 14:23:15;;;;;;;3.80;2.80;;;;;;;;;;5052028;28;20401;-58
2022/05/13 14:25:57;;;;;;;5.53;2.83;;;;;;;;;;5054786;28;20461;-58
2022/05/13 14:28:24;;;;;;;3.70;2.80;;;;;;;;;;5054685;28;20393;-59
2022/05/13 14:30:53;;;;;;;3.33;1.90;;;;;;;;;;5054080;28;20807;-59
2022/05/13 14:33:19;;;;;;;4.90;2.60;;;;;;;;;;5052895;28;20424;-59
2022/05/13 14:35:45;;;;;;;10.83;2.97;;;;;;;;;;5054575;28;20941;-59
2022/05/13 14:38:13;;;;;;;5.40;3.00;;;;;;;;;;5054612;28;20397;-59
2022/05/13 14:40:45;;;;;;;6.30;3.07;;;;;;;;;;5054361;28;20586;-59
2022/05/13 14:43:12;;;;;;;3.53;2.50;;;;;;;;;;5054397;28;20428;-59
2022/05/13 14:45:42;;;;;;;4.60;2.40;;;;;;;;;;5054344;28;20891;-59
2022/05/13 14:48:20;;;;;;;3.70;2.53;;;;;;;;;;5054416;28;20398;-59
2022/05/13 14:51:01;;;;;;;2.50;2.20;;;;;;;;;;5053579;28;20422;-59
2022/05/13 14:53:28;;;;;;;3.40;2.10;;;;;;;;;;5054023;28;20535;-59
2022/05/13 14:55:58;;;;;;;2.87;2.00;;;;;;;;;;5054365;28;20938;-59
2022/05/13 14:58:26;;;;;;;4.47;2.20;;;;;;;;;;5054147;28;20405;-59
2022/05/13 15:00:54;;;;;;;3.20;2.57;;;;;;;;;;5053364;28;20451;-59
2022/05/13 15:03:26;;;;;;;3.80;2.00;;;;;;;;;;5054033;28;20789;-59
2022/05/13 15:05:52;;;;;;;3.87;2.47;;;;;;;;;;5054164;28;20476;-59
2022/05/13 15:08:30;;;;;;;5.07;2.30;;;;;;;;;;5053993;28;20398;-59
2022/05/13 15:10:57;;;;;;;2.30;1.93;;;;;;;;;;5053392;28;20434;-59
2022/05/13 15:13:24;;;;;;;6.97;2.33;;;;;;;;;;5065746;28;20436;-59
2022/05/13 15:15:51;;;;;;;2.70;1.70;;;;;;;;;;5073724;28;20401;-59
2022/05/13 15:18:17;;;;;;;2.53;2.07;;;;;;;;;;5073451;28;20898;-59
2022/05/13 15:20:44;;;;;;;8.20;2.30;;;;;;;;;;5073736;28;20483;-59
2022/05/13 15:23:10;;;;;;;3.50;2.20;;;;;;;;;;5073298;28;20927;-59